Time;durP1;ratioP1;P1;durP2;ratioP2;P2;SDS_P1;SDS_P2;PMS_P1;PMS_P2;Temp;Humidity;BMP_temperature;BMP_pressure;BME280_temperature;BME280_humidity;BME280_pressure;Samples;Min_cycle;Max_cycle;Signal;HPM_P1;HPM_P2
2021/03/16 00:00:46;;;;;;;2.33;1.80;;;;;;;2.29;86.14;94087.94;1777252;81;21591;-65
2021/03/16 00:03:33;;;;;;;1.90;0.80;;;;;;;2.25;86.04;94095.78;1777367;81;21088;-65
2021/03/16 00:06:06;;;;;;;3.50;2.40;;;;;;;2.27;85.79;94084.89;1775180;81;21147;-65
2021/03/16 00:08:33;;;;;;;3.37;2.63;;;;;;;2.26;86.08;94094.89;1777156;80;21145;-65
2021/03/16 00:11:02;;;;;;;3.67;2.80;;;;;;;2.28;85.93;94090.54;1777254;80;21124;-65
2021/03/16 00:13:30;;;;;;;3.93;3.00;;;;;;;2.28;86.14;94086.64;1777291;81;21574;-65
2021/03/16 00:15:57;;;;;;;3.37;2.57;;;;;;;2.28;86.09;94095.75;1777170;81;21151;-65
2021/03/16 00:18:26;;;;;;;4.83;3.20;;;;;;;2.23;86.39;94091.89;1777149;81;21144;-65
2021/03/16 00:20:53;;;;;;;4.53;3.27;;;;;;;2.25;86.14;94091.88;1777200;81;21176;-65
2021/03/16 00:23:21;;;;;;;5.80;3.40;;;;;;;2.19;85.96;94094.53;1777349;81;21156;-65
2021/03/16 00:25:49;;;;;;;1.70;1.10;;;;;;;2.19;85.94;94095.83;1776972;81;21132;-65
2021/03/16 00:28:17;;;;;;;4.17;2.97;;;;;;;2.13;85.83;94095.02;1777236;81;21566;-65
2021/03/16 00:30:45;;;;;;;4.37;3.43;;;;;;;2.15;85.74;94099.78;1776965;81;21155;-65
2021/03/16 00:33:13;;;;;;;5.10;3.30;;;;;;;2.16;85.80;94088.48;1777629;81;21290;-65
2021/03/16 00:35:41;;;;;;;4.70;3.57;;;;;;;2.21;85.71;94095.39;1777264;80;21160;-65
2021/03/16 00:38:09;;;;;;;4.43;3.30;;;;;;;2.24;85.63;94096.64;1777254;80;21132;-65
2021/03/16 00:40:36;;;;;;;4.27;3.30;;;;;;;2.32;85.41;94096.15;1777553;80;21124;-65
2021/03/16 00:43:04;;;;;;;4.47;3.40;;;;;;;2.31;84.98;94102.21;1777221;81;21160;-65
2021/03/16 00:45:31;;;;;;;3.87;3.40;;;;;;;2.29;84.85;94098.34;1777117;81;21559;-65
2021/03/16 00:47:59;;;;;;;3.63;2.73;;;;;;;2.27;84.68;94102.70;1777045;81;21141;-65
2021/03/16 00:50:27;;;;;;;3.73;2.80;;;;;;;2.20;84.40;94097.13;1777301;81;21143;-65
2021/03/16 00:52:56;;;;;;;3.10;2.27;;;;;;;2.10;84.49;94099.41;1777247;80;21132;-64
2021/03/16 00:55:26;;;;;;;3.30;2.40;;;;;;;2.00;84.55;94099.94;1775293;81;21140;-65
2021/03/16 00:57:53;;;;;;;4.27;3.03;;;;;;;1.88;85.16;94101.34;1777183;80;21187;-65
2021/03/16 01:00:23;;;;;;;3.87;2.63;;;;;;;1.78;85.32;94102.31;1777279;81;21168;-65
2021/03/16 01:02:51;;;;;;;4.17;3.03;;;;;;;1.69;85.76;94096.33;1753235;81;21588;-65
2021/03/16 01:05:19;;;;;;;4.43;3.57;;;;;;;1.75;85.60;94096.70;1777110;80;21124;-65
2021/03/16 01:07:46;;;;;;;2.77;2.53;;;;;;;1.83;85.43;94098.78;1777180;81;21594;-65
2021/03/16 01:10:17;;;;;;;3.97;3.27;;;;;;;1.84;85.22;94095.33;1777186;81;21144;-65
2021/03/16 01:12:45;;;;;;;4.47;3.00;;;;;;;1.82;84.97;94092.31;1777250;80;21559;-65
2021/03/16 01:19:14;;;;;;;3.77;3.20;;;;;;;1.69;84.87;94087.67;1777229;81;21551;-65
2021/03/16 01:21:43;;;;;;;5.60;3.80;;;;;;;1.63;85.12;94089.00;1777433;81;21139;-65
2021/03/16 01:24:11;;;;;;;3.50;3.13;;;;;;;1.57;85.38;94088.63;1777498;81;21131;-65
2021/03/16 01:26:40;;;;;;;4.90;3.60;;;;;;;1.59;85.52;94089.89;1777254;81;21172;-66
2021/03/16 01:29:09;;;;;;;4.47;3.20;;;;;;;1.57;85.61;94084.73;1777387;81;21127;-65
2021/03/16 01:31:37;;;;;;;3.63;2.87;;;;;;;1.61;85.60;94086.41;1777184;81;21163;-65
2021/03/16 01:34:05;;;;;;;4.00;3.40;;;;;;;1.63;85.50;94080.76;1777089;80;21132;-65
2021/03/16 01:36:33;;;;;;;4.23;3.30;;;;;;;1.62;85.44;94082.09;1777217;81;21152;-65
2021/03/16 01:39:01;;;;;;;1.97;1.63;;;;;;;1.65;85.35;94080.76;1777292;81;21554;-65
2021/03/16 01:41:29;;;;;;;3.67;2.80;;;;;;;1.64;85.20;94080.34;1777030;81;21151;-65
2021/03/16 01:43:57;;;;;;;2.70;2.10;;;;;;;1.57;85.18;94075.62;1777381;80;21586;-65
2021/03/16 01:46:24;;;;;;;2.03;1.73;;;;;;;1.52;85.22;94080.00;1776856;81;21132;-65
2021/03/16 01:48:53;;;;;;;2.70;2.33;;;;;;;1.46;85.34;94077.44;1777299;80;21152;-65
2021/03/16 01:51:20;;;;;;;2.90;2.13;;;;;;;1.37;85.56;94073.19;1777361;80;21151;-65
2021/03/16 01:53:48;;;;;;;1.93;1.67;;;;;;;1.32;85.89;94081.46;1777349;81;21128;-65
2021/03/16 01:56:18;;;;;;;1.50;1.33;;;;;;;1.31;85.92;94081.05;1775865;81;21136;-65
2021/03/16 01:59:04;;;;;;;2.40;1.80;;;;;;;1.27;86.07;94084.53;1757353;81;21093;-65
2021/03/16 02:01:51;;;;;;;2.77;2.43;;;;;;;1.26;86.07;94082.78;1776757;81;21136;-65
2021/03/16 02:04:37;;;;;;;2.53;2.17;;;;;;;1.30;86.10;94081.45;1777098;81;21089;-65
2021/03/16 02:07:41;;;;;;;2.40;2.00;;;;;;;1.31;86.00;94082.34;1777293;81;21593;-65
2021/03/16 02:10:53;;;;;;;3.52;2.55;;;;;;;1.28;86.03;94083.64;1777138;81;21127;-65
2021/03/16 02:14:03;;;;;;;2.90;2.23;;;;;;;1.36;86.00;94076.67;1777497;80;21112;-65
2021/03/16 02:17:07;;;;;;;4.10;2.77;;;;;;;1.39;85.65;94077.95;1777109;81;21120;-65
2021/03/16 02:20:18;;;;;;;2.85;2.37;;;;;;;1.35;85.79;94081.42;1777325;81;21144;-65
2021/03/16 02:23:06;;;;;;;2.57;1.90;;;;;;;1.33;85.75;94080.58;1776927;81;21148;-65
2021/03/16 02:26:14;;;;;;;3.07;2.43;;;;;;;1.35;85.80;94084.47;1777313;81;21131;-65
2021/03/16 02:29:38;;;;;;;2.83;2.10;;;;;;;1.36;85.79;94081.88;1777402;81;21151;-65
2021/03/16 02:32:27;;;;;;;2.55;2.02;;;;;;;1.44;85.63;94094.80;1777417;80;21122;-65
2021/03/16 02:35:18;;;;;;;2.50;1.53;;;;;;;1.42;85.54;94083.55;1782804;80;21169;-65
2021/03/16 02:38:07;;;;;;;1.83;1.60;;;;;;;1.35;85.44;94090.52;1789405;80;21271;-65
2021/03/16 02:40:56;;;;;;;1.47;1.13;;;;;;;1.37;85.68;94089.23;1789654;80;21688;-65
2021/03/16 02:43:44;;;;;;;1.00;0.90;;;;;;;1.31;85.58;94092.74;1789565;80;21140;-65
2021/03/16 02:46:32;;;;;;;2.60;1.93;;;;;;;1.29;85.50;94090.14;1789436;80;21164;-65
2021/03/16 02:49:20;;;;;;;1.90;1.37;;;;;;;1.24;85.87;94088.45;1789763;80;21108;-65
2021/03/16 02:52:08;;;;;;;1.30;1.17;;;;;;;1.23;85.86;94088.02;1789693;80;21112;-65
2021/03/16 02:54:56;;;;;;;1.23;1.10;;;;;;;1.17;86.01;94096.72;1789782;80;21562;-65
2021/03/16 02:57:44;;;;;;;1.37;1.13;;;;;;;1.17;86.15;94096.72;1765517;80;21134;-65
2021/03/16 03:00:32;;;;;;;1.57;1.23;;;;;;;1.16;86.33;94094.12;1790148;80;21111;-65
2021/03/16 03:03:22;;;;;;;1.33;1.10;;;;;;;1.14;86.28;94102.38;1789634;80;21108;-65
2021/03/16 03:06:09;;;;;;;1.40;1.20;;;;;;;1.13;86.50;94095.00;1789792;80;21546;-65
2021/03/16 03:08:56;;;;;;;1.30;1.13;;;;;;;1.17;86.56;94098.02;1789814;80;21506;-65
2021/03/16 03:11:43;;;;;;;1.80;1.20;;;;;;;1.20;86.48;94095.39;1789744;80;21128;-65
2021/03/16 03:14:29;;;;;;;1.20;1.10;;;;;;;1.22;86.36;94096.25;1789928;80;21522;-65
2021/03/16 03:17:15;;;;;;;1.30;1.20;;;;;;;1.23;86.26;94098.41;1789615;80;21526;-65
2021/03/16 03:20:09;;;;;;;1.13;0.80;;;;;;;1.24;86.24;94093.20;1789916;80;21131;-65
2021/03/16 03:23:18;;;;;;;0.90;0.82;;;;;;;1.25;86.13;94093.63;1790210;80;21554;-65
2021/03/16 03:26:19;;;;;;;1.80;1.00;;;;;;;1.25;86.10;94095.37;1789753;80;21119;-65
2021/03/16 03:29:07;;;;;;;1.10;0.90;;;;;;;1.28;85.96;94098.79;1789867;80;21131;-65
2021/03/16 03:31:56;;;;;;;1.37;1.10;;;;;;;1.26;85.90;94097.97;1789775;80;21146;-66
2021/03/16 03:34:45;;;;;;;1.77;1.37;;;;;;;1.25;85.99;94100.56;1765620;80;21104;-65
2021/03/16 03:37:33;;;;;;;1.57;1.23;;;;;;;1.27;86.02;94100.97;1789702;80;21120;-65
2021/03/16 03:40:20;;;;;;;0.73;0.73;;;;;;;1.24;86.09;94104.91;1789545;80;21086;-65
2021/03/16 03:43:10;;;;;;;1.63;1.37;;;;;;;1.24;86.01;94102.75;1789603;80;21123;-65
2021/03/16 03:45:57;;;;;;;0.50;0.43;;;;;;;1.23;86.11;94104.45;1789614;80;21136;-65
2021/03/16 03:48:47;;;;;;;1.00;0.73;;;;;;;1.21;85.89;94107.53;1789997;80;21108;-65
2021/03/16 03:51:36;;;;;;;1.17;0.60;;;;;;;1.15;86.12;94104.95;1789790;80;21112;-65
2021/03/16 03:54:23;;;;;;;0.80;0.80;;;;;;;1.14;86.13;94112.77;1765815;80;21119;-65
2021/03/16 03:57:15;;;;;;;1.40;1.00;;;;;;;1.17;86.27;94114.05;1789915;80;21119;-65
2021/03/16 04:00:03;;;;;;;1.40;1.20;;;;;;;1.15;86.30;94113.19;1789627;80;21112;-65
2021/03/16 04:02:52;;;;;;;1.10;0.90;;;;;;;1.09;86.41;94115.39;1789254;80;21123;-65
2021/03/16 04:05:38;;;;;;;2.10;1.70;;;;;;;1.00;86.58;94126.69;1789879;80;21111;-65
2021/03/16 04:08:25;;;;;;;1.37;1.17;;;;;;;1.00;86.86;94129.28;1789643;80;21582;-65
2021/03/16 04:11:11;;;;;;;3.27;2.20;;;;;;;1.01;87.26;94136.66;1789690;80;21135;-65
2021/03/16 04:13:59;;;;;;;4.30;2.73;;;;;;;0.96;87.32;94130.19;1789858;80;21116;-65
2021/03/16 04:16:46;;;;;;;4.10;3.27;;;;;;;0.95;87.48;94137.98;1789487;80;21092;-65
2021/03/16 04:19:33;;;;;;;5.67;3.83;;;;;;;0.92;87.62;94142.75;1789605;80;21541;-66
2021/03/16 04:22:20;;;;;;;5.17;3.60;;;;;;;0.93;87.72;94142.31;1789718;80;21115;-64
2021/03/16 04:25:07;;;;;;;78.10;32.03;;;;;;;1.02;87.53;94140.53;1765479;80;21550;-65
2021/03/16 04:27:54;;;;;;;50.87;21.80;;;;;;;1.06;87.44;94145.29;1789596;80;21155;-64
2021/03/16 04:30:40;;;;;;;5.30;3.73;;;;;;;1.02;87.38;94151.36;1789483;80;21088;-64
2021/03/16 04:33:26;;;;;;;3.87;2.90;;;;;;;1.03;87.32;94149.18;1789546;80;21092;-64
2021/03/16 04:36:13;;;;;;;3.67;2.23;;;;;;;1.05;87.29;94141.80;1791591;80;21123;-65
2021/03/16 04:38:58;;;;;;;3.80;2.70;;;;;;;1.04;87.29;94153.08;1793682;80;21254;-64
2021/03/16 04:41:44;;;;;;;3.23;2.60;;;;;;;1.07;87.25;94147.00;1793203;80;21114;-64
2021/03/16 04:44:31;;;;;;;4.90;3.00;;;;;;;1.03;87.19;94146.58;1793213;80;21088;-65
2021/03/16 04:47:18;;;;;;;4.80;3.83;;;;;;;1.00;87.32;94146.16;1793430;80;21266;-64
2021/03/16 04:50:06;;;;;;;6.33;4.10;;;;;;;0.99;87.22;94151.39;1793104;80;21622;-64
2021/03/16 04:52:53;;;;;;;3.40;2.70;;;;;;;0.94;87.21;94150.11;1793445;80;21115;-64
2021/03/16 04:55:39;;;;;;;5.20;3.17;;;;;;;0.96;87.26;94151.38;1793165;80;21104;-64
2021/03/16 04:58:25;;;;;;;3.37;2.57;;;;;;;0.97;87.36;94160.47;1793349;80;21132;-65
2021/03/16 05:01:12;;;;;;;2.83;2.10;;;;;;;0.97;87.35;94157.88;1793244;80;21130;-64
2021/03/16 05:03:59;;;;;;;5.20;3.60;;;;;;;0.93;87.59;94158.75;1793177;80;21092;-64
2021/03/16 05:06:46;;;;;;;8.10;4.93;;;;;;;0.95;87.57;94156.16;1793610;80;21281;-64
2021/03/16 05:09:31;;;;;;;3.57;2.90;;;;;;;0.97;87.57;94164.36;1793240;80;21151;-64
2021/03/16 05:12:17;;;;;;;4.57;2.63;;;;;;;0.99;87.51;94160.47;1793328;80;21091;-65
2021/03/16 05:15:07;;;;;;;17.40;9.97;;;;;;;0.97;87.61;94162.21;1793129;80;21164;-64
2021/03/16 05:17:53;;;;;;;11.10;5.60;;;;;;;0.92;87.68;94159.63;1793087;80;21136;-64
2021/03/16 05:20:40;;;;;;;37.50;19.67;;;;;;;0.91;87.81;94159.62;1793071;80;21587;-64
2021/03/16 05:23:25;;;;;;;20.00;10.57;;;;;;;0.92;87.94;94167.86;1793135;80;21123;-64
2021/03/16 05:26:11;;;;;;;80.40;33.47;;;;;;;0.90;88.14;94168.30;1793056;80;21111;-64
2021/03/16 05:29:00;;;;;;;142.83;54.73;;;;;;;0.95;88.01;94170.44;1793405;80;21108;-64
2021/03/16 05:31:46;;;;;;;10.03;4.77;;;;;;;0.98;87.82;94169.12;1793397;80;21577;-64
2021/03/16 05:34:33;;;;;;;94.47;39.53;;;;;;;1.10;87.75;94179.45;1793433;80;21131;-64
2021/03/16 05:37:19;;;;;;;11.57;6.00;;;;;;;1.16;87.43;94175.54;1793110;80;21108;-64
2021/03/16 05:40:07;;;;;;;36.53;20.23;;;;;;;1.15;87.25;94186.78;1793334;80;21546;-64
2021/03/16 05:42:54;;;;;;;43.23;22.50;;;;;;;1.08;87.26;94187.68;1793406;80;21119;-64
2021/03/16 05:45:41;;;;;;;18.50;9.23;;;;;;;1.14;87.02;94192.01;1793356;80;21123;-64
2021/03/16 05:48:29;;;;;;;18.80;9.20;;;;;;;1.11;87.07;94194.59;1792910;80;21139;-67
2021/03/16 05:51:17;;;;;;;35.20;20.67;;;;;;;1.05;87.26;94194.20;1793304;80;21557;-67
2021/03/16 05:54:06;;;;;;;6.80;3.67;;;;;;;1.02;87.34;94193.78;1798570;78;21151;-69
2021/03/16 05:56:52;;;;;;;14.10;8.23;;;;;;;1.08;87.22;94187.27;1751836;81;21100;-73
2021/03/16 05:59:41;;;;;;;6.17;4.47;;;;;;;1.03;87.39;94199.42;1791738;80;21121;-66
2021/03/16 06:02:27;;;;;;;5.50;3.80;;;;;;;1.08;87.45;94199.37;1792840;80;21114;-65
2021/03/16 06:05:14;;;;;;;5.77;3.80;;;;;;;1.10;87.25;94202.83;1793300;79;21559;-62
2021/03/16 06:08:00;;;;;;;5.53;4.20;;;;;;;1.10;87.15;94211.06;1793281;79;21132;-63
2021/03/16 06:10:46;;;;;;;8.20;4.63;;;;;;;1.12;87.01;94210.19;1793523;79;21082;-64
2021/03/16 06:13:32;;;;;;;8.87;6.07;;;;;;;1.10;87.07;94212.36;1793252;80;21118;-63
2021/03/16 06:16:19;;;;;;;10.53;6.90;;;;;;;1.11;87.12;94214.97;1793303;80;21094;-64
2021/03/16 06:19:07;;;;;;;11.47;7.20;;;;;;;1.13;87.06;94220.99;1793016;80;21142;-64
2021/03/16 06:22:06;;;;;;;9.03;6.10;;;;;;;1.16;87.01;94222.71;1772742;80;21174;-63
2021/03/16 06:24:55;;;;;;;12.97;7.30;;;;;;;1.20;86.88;94224.44;1772763;80;21146;-67
2021/03/16 06:27:44;;;;;;;7.97;6.03;;;;;;;1.25;86.73;94226.13;1793364;80;21150;-67
2021/03/16 06:30:33;;;;;;;8.10;5.80;;;;;;;1.25;86.68;94230.03;1772789;80;21110;-68
2021/03/16 06:33:26;;;;;;;18.53;10.60;;;;;;;1.30;86.62;94235.21;1793127;80;21134;-67
2021/03/16 06:36:28;;;;;;;40.57;20.73;;;;;;;1.34;86.33;94237.38;1793059;80;21170;-65
2021/03/16 06:39:21;;;;;;;24.60;12.50;;;;;;;1.41;86.00;94239.93;1772275;80;21595;-70
2021/03/16 06:42:22;;;;;;;3.17;2.30;;;;;;;1.47;85.82;94242.48;1793324;80;21150;-70
2021/03/16 06:45:13;;;;;;;7.37;4.40;;;;;;;1.57;85.25;94250.24;1793093;80;21604;-68
2021/03/16 06:48:22;;;;;;;66.33;35.83;;;;;;;1.71;84.85;94246.69;1793177;80;21170;-65
2021/03/16 06:51:13;;;;;;;63.03;31.70;;;;;;;1.72;84.77;94256.20;1804746;78;21101;-66
2021/03/16 06:54:10;;;;;;;12.17;6.87;;;;;;;1.66;84.75;94256.26;1825608;78;21650;-67
2021/03/16 06:57:01;;;;;;;2.03;1.30;;;;;;;1.69;84.61;94264.47;1795493;78;21544;-63
2021/03/16 06:59:48;;;;;;;2.93;1.90;;;;;;;1.76;84.43;94261.37;1793042;79;21086;-65
2021/03/16 07:02:34;;;;;;;2.37;1.70;;;;;;;1.78;84.08;94264.84;1793090;80;21129;-67
2021/03/16 07:05:29;;;;;;;1.63;0.80;;;;;;;1.73;83.77;94260.52;1792940;80;21098;-64
2021/03/16 07:08:17;;;;;;;1.13;0.80;;;;;;;1.69;83.62;94258.83;1793009;79;21118;-66
2021/03/16 07:11:07;;;;;;;3.90;1.90;;;;;;;1.76;83.18;94261.37;1793157;79;21121;-67
2021/03/16 07:13:55;;;;;;;2.23;0.93;;;;;;;1.73;83.40;94276.56;1793320;79;21101;-61
2021/03/16 07:16:45;;;;;;;0.90;0.77;;;;;;;1.69;83.52;94265.33;1792977;79;21122;-65
2021/03/16 07:19:33;;;;;;;1.43;1.30;;;;;;;1.76;83.39;94268.73;1792914;80;21125;-65
2021/03/16 07:22:21;;;;;;;1.77;1.20;;;;;;;1.85;83.40;94274.34;1793011;79;21504;-64
2021/03/16 07:25:10;;;;;;;1.70;0.93;;;;;;;1.93;83.21;94276.44;1793447;79;21134;-68
2021/03/16 07:27:58;;;;;;;2.83;1.83;;;;;;;2.01;82.82;94275.94;1793091;80;21131;-66
2021/03/16 07:30:46;;;;;;;4.63;2.30;;;;;;;2.10;82.75;94281.53;1793272;79;21113;-66
2021/03/16 07:33:33;;;;;;;6.37;3.33;;;;;;;2.18;82.82;94284.94;1792853;80;21114;-64
2021/03/16 07:36:19;;;;;;;5.33;3.30;;;;;;;2.31;82.55;94278.75;1793400;79;21532;-67
2021/03/16 07:39:09;;;;;;;2.10;0.90;;;;;;;2.44;81.92;94281.25;1794906;79;21263;-73
2021/03/16 07:41:56;;;;;;;2.77;1.17;;;;;;;2.48;81.37;94287.73;1795013;80;21607;-69
2021/03/16 07:44:43;;;;;;;1.10;0.67;;;;;;;2.59;81.23;94280.67;1794740;79;21109;-70
2021/03/16 07:47:37;;;;;;;2.97;2.30;;;;;;;2.62;80.22;94281.11;1794801;79;21572;-65
2021/03/16 07:50:29;;;;;;;4.08;2.65;;;;;;;2.67;80.39;94284.95;1790315;80;21122;-68
2021/03/16 07:53:29;;;;;;;6.13;2.67;;;;;;;2.59;80.51;94286.33;1789760;80;21122;-67
2021/03/16 07:56:20;;;;;;;4.17;2.13;;;;;;;2.57;80.70;94281.16;1789644;80;21572;-67
2021/03/16 07:59:07;;;;;;;2.93;1.30;;;;;;;2.42;80.87;94289.51;1789719;80;21584;-66
2021/03/16 08:01:54;;;;;;;3.10;1.60;;;;;;;2.45;80.62;94292.97;1789398;80;21157;-67
2021/03/16 08:04:41;;;;;;;36.20;15.70;;;;;;;2.42;80.60;94296.02;1789559;80;21114;-65
2021/03/16 08:07:29;;;;;;;4.93;2.80;;;;;;;2.42;81.12;94307.32;1789527;80;21561;-65
2021/03/16 08:10:32;;;;;;;18.10;13.07;;;;;;;2.48;81.15;94308.55;1789500;80;21264;-63
2021/03/16 08:13:21;;;;;;;2.30;1.10;;;;;;;2.52;81.16;94306.78;1789585;80;21585;-64
2021/03/16 08:16:17;;;;;;;4.53;1.70;;;;;;;2.57;80.82;94303.70;1789666;80;21142;-63
2021/03/16 08:19:14;;;;;;;7.10;3.90;;;;;;;2.62;80.08;94308.45;1789634;80;21118;-64
2021/03/16 08:21:59;;;;;;;9.27;6.10;;;;;;;2.78;79.98;94298.75;1780505;79;22909;-65
2021/03/16 08:24:46;;;;;;;3.67;2.27;;;;;;;2.86;80.30;94309.09;1754116;82;21121;-66
2021/03/16 08:27:37;;;;;;;1.93;1.10;;;;;;;2.88;80.02;94303.44;1754269;81;21146;-67
2021/03/16 08:30:25;;;;;;;1.53;1.03;;;;;;;2.94;79.40;94311.18;1742360;81;21140;-73
2021/03/16 08:33:14;;;;;;;11.87;6.03;;;;;;;2.96;78.56;94316.80;1710261;82;21575;-75
2021/03/16 08:36:03;;;;;;;4.37;1.77;;;;;;;2.95;79.25;94321.59;1718840;82;21131;-71
2021/03/16 08:38:53;;;;;;;3.37;1.63;;;;;;;2.89;78.48;94328.59;1761906;80;21519;-67
2021/03/16 08:41:39;;;;;;;2.20;1.43;;;;;;;2.88;78.90;94342.52;1690970;84;21164;-70
2021/03/16 08:44:28;;;;;;;4.73;1.93;;;;;;;2.79;79.51;94346.05;1720608;82;21125;-69
2021/03/16 08:47:18;;;;;;;3.30;1.90;;;;;;;2.78;79.56;94344.34;1685447;84;21588;-70
2021/03/16 08:50:06;;;;;;;8.33;5.43;;;;;;;2.67;79.74;94353.97;1692901;84;21588;-73
2021/03/16 08:52:53;;;;;;;3.50;2.00;;;;;;;2.62;80.72;94355.74;1690316;85;21148;-66
2021/03/16 08:55:39;;;;;;;6.30;3.27;;;;;;;2.52;80.29;94362.34;1689205;84;21172;-68
2021/03/16 08:58:27;;;;;;;3.30;2.13;;;;;;;2.52;80.55;94358.44;1689158;85;21147;-71
2021/03/16 09:01:32;;;;;;;2.80;2.30;;;;;;;2.47;81.41;94361.92;1713560;84;21157;-73
2021/03/16 09:04:20;;;;;;;3.60;1.97;;;;;;;2.45;81.55;94349.39;1713894;83;21289;-67
2021/03/16 09:07:06;;;;;;;3.10;2.00;;;;;;;2.46;81.67;94351.95;1713819;84;21115;-77
2021/03/16 09:10:13;;;;;;;2.13;1.63;;;;;;;2.50;81.55;94345.01;1713769;84;21158;-78
2021/03/16 09:13:02;;;;;;;0.97;0.80;;;;;;;2.46;81.53;94344.59;1714140;84;21296;-77
2021/03/16 09:15:50;;;;;;;1.00;0.80;;;;;;;2.57;81.38;94346.25;1713918;84;21140;-75
2021/03/16 09:18:36;;;;;;;1.23;0.90;;;;;;;2.63;80.73;94345.33;1689797;84;21111;-73
2021/03/16 09:21:22;;;;;;;0.67;0.50;;;;;;;2.67;80.59;94339.23;1720432;83;21189;-74
2021/03/16 09:24:12;;;;;;;0.90;0.60;;;;;;;2.77;80.41;94348.69;1730188;82;21122;-72
2021/03/16 09:27:04;;;;;;;0.60;0.50;;;;;;;2.77;79.54;94346.50;1777132;80;21126;-72
2021/03/16 09:29:50;;;;;;;0.67;0.40;;;;;;;2.80;79.89;94352.56;1701004;84;21106;-72
2021/03/16 09:32:42;;;;;;;0.70;0.60;;;;;;;2.81;79.05;94356.88;1776623;80;21149;-71
2021/03/16 09:35:28;;;;;;;1.23;0.97;;;;;;;2.80;78.99;94376.45;1776289;81;21123;-73
2021/03/16 09:38:14;;;;;;;0.80;0.50;;;;;;;2.76;79.43;94374.29;1776276;80;21118;-69
2021/03/16 09:41:10;;;;;;;0.57;0.53;;;;;;;2.64;79.32;94378.29;1699185;84;21164;-71
2021/03/16 09:43:40;;;;;;;0.60;0.50;;;;;;;2.68;79.36;94385.66;1776504;81;21124;-70
2021/03/16 09:46:13;;;;;;;1.30;1.20;;;;;;;2.64;79.19;94388.70;1776190;81;21154;-72
2021/03/16 09:48:52;;;;;;;3.50;2.93;;;;;;;2.63;80.19;94381.78;1776071;81;21296;-73
2021/03/16 09:51:24;;;;;;;1.70;1.27;;;;;;;2.66;81.49;94382.20;1700374;84;21564;-75
2021/03/16 09:53:57;;;;;;;1.73;0.90;;;;;;;2.65;81.17;94386.55;1776432;81;21727;-73
2021/03/16 09:56:32;;;;;;;2.03;1.00;;;;;;;2.70;80.48;94394.33;1776328;81;21265;-70
2021/03/16 09:59:02;;;;;;;2.30;1.60;;;;;;;2.78;81.12;94393.38;1701012;84;21146;-71
2021/03/16 10:01:38;;;;;;;2.67;1.90;;;;;;;2.85;81.52;94386.80;1776428;80;21727;-79
2021/03/16 10:04:13;;;;;;;1.90;1.70;;;;;;;2.85;81.47;94384.20;1700415;84;21545;-70
2021/03/16 10:06:42;;;;;;;1.77;1.13;;;;;;;2.93;81.46;94379.36;1776439;81;21122;-70
2021/03/16 10:09:18;;;;;;;2.17;1.37;;;;;;;3.02;80.86;94379.30;1700332;84;21177;-70
2021/03/16 10:11:46;;;;;;;1.20;1.00;;;;;;;2.91;80.36;94386.77;1776418;81;21685;-67
2021/03/16 10:14:26;;;;;;;18.90;10.60;;;;;;;2.97;80.92;94401.03;1776218;80;21153;-67
2021/03/16 10:16:54;;;;;;;1.93;1.43;;;;;;;2.87;81.43;94415.02;1776602;80;21119;-70
2021/03/16 10:19:25;;;;;;;2.63;1.70;;;;;;;2.94;81.02;94417.56;1776204;81;21296;-70
2021/03/16 10:21:53;;;;;;;5.43;2.30;;;;;;;2.93;80.51;94417.59;1709867;83;21181;-70
2021/03/16 10:24:27;;;;;;;2.10;1.37;;;;;;;3.00;80.60;94420.13;1771886;81;21624;-70
2021/03/16 10:26:56;;;;;;;2.60;1.47;;;;;;;2.96;81.43;94416.25;1726299;83;21134;-70
2021/03/16 10:29:24;;;;;;;1.80;1.70;;;;;;;2.99;80.72;94410.56;1772222;80;21142;-70
2021/03/16 10:31:52;;;;;;;5.97;2.27;;;;;;;3.07;80.86;94417.45;1726292;83;21168;-70
2021/03/16 10:34:22;;;;;;;3.27;1.53;;;;;;;3.09;80.76;94419.62;1772138;81;21149;-70
2021/03/16 10:36:50;;;;;;;3.43;2.20;;;;;;;3.06;81.01;94421.81;1726288;83;21126;-70
2021/03/16 10:39:19;;;;;;;1.37;1.00;;;;;;;3.09;80.89;94424.38;1772200;81;21138;-70
2021/03/16 10:41:46;;;;;;;1.43;0.87;;;;;;;3.05;79.86;94414.88;1726316;83;21169;-69
2021/03/16 10:44:14;;;;;;;0.80;0.70;;;;;;;2.91;79.49;94409.77;1772094;81;21676;-69
2021/03/16 10:46:42;;;;;;;0.83;0.70;;;;;;;2.85;80.08;94409.84;1726306;83;21121;-70
2021/03/16 10:49:09;;;;;;;0.60;0.50;;;;;;;2.85;80.65;94401.13;1772026;81;21107;-69
2021/03/16 10:51:37;;;;;;;1.03;0.73;;;;;;;2.80;80.66;94403.36;1726298;83;21126;-69
2021/03/16 10:54:05;;;;;;;1.40;0.90;;;;;;;2.80;80.08;94395.98;1772001;81;21138;-69
2021/03/16 10:56:33;;;;;;;1.30;1.00;;;;;;;2.78;80.70;94394.69;1726466;83;21182;-67
2021/03/16 10:59:01;;;;;;;1.10;0.63;;;;;;;2.78;80.62;94397.73;1772148;81;21296;-67
2021/03/16 11:01:29;;;;;;;2.47;0.93;;;;;;;2.73;80.94;94394.30;1726248;83;21176;-67
2021/03/16 11:03:58;;;;;;;2.20;0.97;;;;;;;2.88;81.19;94398.08;1771690;81;21299;-67
2021/03/16 11:06:26;;;;;;;0.57;0.50;;;;;;;2.98;81.32;94399.73;1726574;83;21172;-67
2021/03/16 11:08:53;;;;;;;0.50;0.50;;;;;;;2.94;80.44;94406.28;1771912;81;21295;-67
2021/03/16 11:11:20;;;;;;;1.60;0.67;;;;;;;2.93;79.53;94408.03;1756154;82;21137;-67
2021/03/16 11:13:48;;;;;;;0.97;0.53;;;;;;;2.90;80.12;94409.77;1772094;81;21299;-67
2021/03/16 11:16:16;;;;;;;1.37;0.90;;;;;;;2.92;79.71;94419.75;1726216;83;21622;-67
2021/03/16 11:18:44;;;;;;;1.17;0.50;;;;;;;2.95;79.93;94418.45;1772271;81;21130;-67
2021/03/16 11:21:11;;;;;;;8.40;4.50;;;;;;;3.01;79.61;94424.45;1726210;83;21185;-67
2021/03/16 11:23:39;;;;;;;3.83;1.70;;;;;;;3.00;79.23;94435.77;1771402;80;21130;-67
2021/03/16 11:26:06;;;;;;;2.73;1.60;;;;;;;2.97;80.07;94434.50;1705940;84;21169;-67
2021/03/16 11:28:34;;;;;;;3.43;1.73;;;;;;;3.00;79.50;94427.95;1771552;81;21564;-67
2021/03/16 11:31:02;;;;;;;1.00;0.70;;;;;;;2.92;79.93;94421.05;1771138;81;21545;-67
2021/03/16 11:33:32;;;;;;;2.20;1.60;;;;;;;2.81;79.62;94427.22;1703513;84;21588;-67
2021/03/16 11:36:19;;;;;;;1.63;1.17;;;;;;;2.80;79.98;94424.20;1771290;81;21115;-69
2021/03/16 11:39:06;;;;;;;0.87;0.63;;;;;;;2.77;80.31;94432.45;1705794;83;21157;-70
2021/03/16 11:41:52;;;;;;;1.37;0.90;;;;;;;2.67;80.96;94425.58;1771526;81;21565;-70
2021/03/16 11:44:39;;;;;;;1.63;1.13;;;;;;;2.65;80.98;94428.66;1706041;83;21130;-69
2021/03/16 11:47:26;;;;;;;1.00;0.80;;;;;;;2.68;81.44;94428.63;1771496;81;21106;-70
2021/03/16 11:50:14;;;;;;;0.60;0.60;;;;;;;2.68;81.58;94428.19;1706059;83;21109;-70
2021/03/16 11:53:00;;;;;;;0.70;0.40;;;;;;;2.59;80.93;94425.20;1771295;81;21122;-69
2021/03/16 11:55:47;;;;;;;2.03;0.70;;;;;;;2.63;81.15;94431.27;1705952;83;21146;-69
2021/03/16 11:58:34;;;;;;;0.77;0.67;;;;;;;2.54;81.69;94422.20;1771538;81;21118;-69
2021/03/16 12:01:20;;;;;;;1.10;0.60;;;;;;;2.51;82.02;94426.13;1771487;81;21123;-69
2021/03/16 12:04:06;;;;;;;1.80;0.80;;;;;;;2.54;81.73;94420.45;1705808;84;21595;-69
2021/03/16 12:06:53;;;;;;;0.80;0.60;;;;;;;2.55;81.91;94420.90;1771458;81;21524;-70
2021/03/16 12:09:39;;;;;;;2.17;1.20;;;;;;;2.49;82.26;94429.17;1706048;84;21129;-69
2021/03/16 12:12:26;;;;;;;0.50;0.33;;;;;;;2.53;82.09;94432.20;1771395;81;21121;-70
2021/03/16 12:15:17;;;;;;;0.33;0.30;;;;;;;2.48;81.25;94432.67;1705956;84;21623;-70
2021/03/16 12:18:03;;;;;;;1.23;0.90;;;;;;;2.49;81.84;94436.55;1771736;81;21134;-70
2021/03/16 12:20:51;;;;;;;0.73;0.70;;;;;;;2.58;81.89;94434.34;1705654;84;21169;-69
2021/03/16 12:23:38;;;;;;;0.63;0.50;;;;;;;2.58;81.79;94435.20;1771251;81;21169;-69
2021/03/16 12:26:24;;;;;;;0.73;0.60;;;;;;;2.54;81.84;94435.22;1705985;84;21156;-69
2021/03/16 12:29:11;;;;;;;0.57;0.50;;;;;;;2.52;81.92;94439.56;1771430;81;21158;-69
2021/03/16 12:31:57;;;;;;;1.97;1.20;;;;;;;2.58;82.07;94440.84;1706036;84;21560;-69
2021/03/16 12:34:45;;;;;;;0.50;0.50;;;;;;;2.56;81.78;94442.14;1771192;81;21120;-69
2021/03/16 12:37:31;;;;;;;0.70;0.43;;;;;;;2.43;81.73;94442.25;1705796;84;21196;-69
2021/03/16 12:40:17;;;;;;;1.57;0.80;;;;;;;2.33;82.11;94442.29;1771191;81;21162;-70
2021/03/16 12:43:04;;;;;;;0.70;0.60;;;;;;;2.23;82.74;94442.35;1705772;84;21182;-69
2021/03/16 12:45:50;;;;;;;0.90;0.43;;;;;;;2.21;83.18;94453.20;1771391;81;21597;-70
2021/03/16 12:48:36;;;;;;;1.60;0.97;;;;;;;2.25;82.99;94449.28;1706137;84;21133;-69
2021/03/16 12:51:22;;;;;;;2.50;1.50;;;;;;;2.19;82.77;94453.64;1771280;81;21134;-69
2021/03/16 12:54:09;;;;;;;1.50;1.10;;;;;;;2.20;83.00;94455.39;1705844;84;21185;-69
2021/03/16 12:56:55;;;;;;;0.80;0.70;;;;;;;2.19;83.57;94467.95;1771442;81;21127;-69
2021/03/16 12:59:41;;;;;;;1.97;1.20;;;;;;;2.25;83.04;94469.24;1705887;84;21593;-69